Wilmington, DE (19806)

8:22 PM EDT on July 01, 2015 (GMT -0400)
The Highlands | | Change Station
CLOSE
Current Station
Personal Weather Station
Location: Wilmington, DE
Elevation: 207 ft
Nearby Weather Stations

Elev 207 ft 39.76 °N, 75.57 °W | Updated 9 seconds ago

Partly Cloudy
Partly Cloudy
77.7 °F
Feels Like 80 °F
N
0.0
Wind Variable Wind from SE
Gusts 0.0 mph

Today
High -- | Low -- °F
--% Chance of Precip.
Yesterday
High -- | Low -- °F
Precip. -- in
5:37 AM 8:34 PM
Full, 100% visible
Pressure 29.84 in
Visibility 10.0 miles
Clouds Clear
Heat Index 80 °F
Dew Point 65 °F
Humidity 65%
Rainfall 0.69 in
Snow Depth Not available.
UV 0.0 out of 12
Pollen 1.60 out of 12
Air Quality Not available.
Flu Activity Not available.
METAR KILG 012351Z AUTO 29007KT 10SM CLR 26/17 A2984 RMK AO2 SLP105 T02610167 10289 20261 53007

More Conditions Fewer Conditions

Pressure 29.84 in
Visibility 10.0 miles
Clouds Clear
Heat Index 80 °F
Dew Point 65 °F
Humidity 65%
Rainfall 0.69 in
Snow Depth Not available.
UV 0.0 out of 12
Pollen 1.60 out of 12
Air Quality Not available.
Flu Activity Not available.
METAR KILG 012351Z AUTO 29007KT 10SM CLR 26/17 A2984 RMK AO2 SLP105 T02610167 10289 20261 53007

More Conditions Fewer Conditions

Nowcast | as of 8:13 PM EDT on July 1, 2015

At 809 PM EDT...Doppler radar indicated scattered showers over the central Delmarva and far northwest New Jersey. These showers were moving east at 20 mph. Locations impacted include... Vineland...Dover...Millville...Bridgeton...Middletown...Easton... Centerville...Cumberland...Talbot...Smyrna...Milford...Buena... Denton...Centreville...Laurel Lake...Harrington...Alloway...Camden... Clayton and Federalsburg. A brief downpour can be expected with these showers. Rainfall amounts will be under one-quarter inch. Lat...Lon 3886 7626 3886 7625 3879 7620 3879 7619 3897 7625 3884 7637 3885 7638 3902 7632 3898 7628 3908 7606 3942 7595 3957 7522 3949 7470 3921 7504 3921 7539 3894 7532 3868 7578 3878 7629 3868 7634 3869 7634

×

10-Day Weather Forecast

×

Almanac

Astronomy

Jul. 01, 2015 Rise Set
Actual Time
Civil Twilight
Nautical Twilight
Astronomical Twilight
Moon
Length of Visible Light
Length of Day
Tomorrow will be .
, % of the Moon is Illuminated

Today's Extremes

State Highs State Lows

Community

WunderPhotos

Upload Photos

1,834,354 photos uploaded!

WunderBlogs® & News

Nearby

Air Quality

  Air Quality AQ Index Pollutant
Not available.

Snow Depth

Station Depth Elevation

Earthquake Activity

City Distance Mag. Time & Date
Minimum magnitude displayed is 2.5.

Coastal Water Temperatures

Place Temperature

Stations

Nearby Weather Stations

Station Location Temp. Windchill Dew Point Humidity Wind Precip. Elev Updated Type